createdAt,value
2024-03-05T00:00:07.887Z,29.9660
2024-03-05T00:00:18.973Z,29.9660
2024-03-05T00:00:30.037Z,29.9620
2024-03-05T00:00:41.282Z,29.9510
2024-03-05T00:00:52.394Z,29.9590
2024-03-05T00:01:03.647Z,29.9590
2024-03-05T00:01:14.977Z,29.9870
2024-03-05T00:01:26.161Z,29.9660
2024-03-05T00:01:37.281Z,29.9660
2024-03-05T00:01:48.342Z,29.9590
2024-03-05T00:01:59.461Z,29.9660
2024-03-05T00:02:10.545Z,29.9480
2024-03-05T00:02:21.558Z,29.9540
2024-03-05T00:02:32.607Z,29.9450
2024-03-05T00:02:43.657Z,29.9590
2024-03-05T00:02:54.704Z,29.9620
2024-03-05T00:03:05.752Z,29.9620
2024-03-05T00:03:16.807Z,29.9510
2024-03-05T00:03:28.050Z,29.9560
2024-03-05T00:03:39.049Z,29.9540
2024-03-05T00:03:50.082Z,29.9660
2024-03-05T00:04:01.144Z,29.9540
2024-03-05T00:04:12.234Z,29.9660
2024-03-05T00:04:23.358Z,29.9770
2024-03-05T00:04:34.417Z,29.9770
2024-03-05T00:04:45.457Z,29.9820
2024-03-05T00:04:56.563Z,29.9820
2024-03-05T00:05:07.659Z,29.9770
2024-03-05T00:05:18.708Z,29.9980
2024-03-05T00:05:29.772Z,29.9770
2024-03-05T00:05:40.801Z,29.9930
2024-03-05T00:05:51.856Z,29.9820
2024-03-05T00:06:02.963Z,29.9660
2024-03-05T00:06:14.012Z,29.9820
2024-03-05T00:06:25.039Z,29.9710
2024-03-05T00:06:36.083Z,29.9620
2024-03-05T00:06:47.154Z,29.9620
2024-03-05T00:06:58.263Z,29.9560
2024-03-05T00:07:09.313Z,29.9560
2024-03-05T00:07:20.417Z,29.9510
2024-03-05T00:07:31.479Z,29.9560
2024-03-05T00:07:42.596Z,29.9450
2024-03-05T00:07:53.765Z,29.9560
2024-03-05T00:08:04.932Z,29.9450
2024-03-05T00:08:16.060Z,29.9510
2024-03-05T00:08:27.103Z,29.9400
2024-03-05T00:08:38.172Z,29.9330
2024-03-05T00:08:49.166Z,29.9280
2024-03-05T00:09:00.229Z,29.9450
2024-03-05T00:09:11.424Z,29.9510
2024-03-05T00:09:22.490Z,29.9560
2024-03-05T00:09:33.574Z,29.9450
2024-03-05T00:09:44.609Z,29.9510
2024-03-05T00:09:55.654Z,29.9330
2024-03-05T00:10:06.756Z,29.9450
2024-03-05T00:10:17.856Z,29.9400
2024-03-05T00:10:29.022Z,29.9450
2024-03-05T00:10:40.199Z,29.9450
2024-03-05T00:10:51.390Z,29.9400
2024-03-05T00:11:02.589Z,29.9510
2024-03-05T00:11:13.810Z,29.9560
2024-03-05T00:11:25.265Z,29.9620
2024-03-05T00:11:36.360Z,29.9560
2024-03-05T00:11:47.429Z,29.9560
2024-03-05T00:11:58.520Z,29.9560
2024-03-05T00:12:09.606Z,29.9510
2024-03-05T00:12:20.664Z,29.9450
2024-03-05T00:12:31.722Z,29.9400
2024-03-05T00:12:42.765Z,29.9400
2024-03-05T00:12:53.823Z,29.9510
2024-03-05T00:13:04.850Z,29.9510
2024-03-05T00:13:15.993Z,29.9430
2024-03-05T00:13:27.070Z,29.9480
2024-03-05T00:13:38.176Z,29.9480
2024-03-05T00:13:49.272Z,29.9480
2024-03-05T00:14:00.472Z,29.9480
2024-03-05T00:14:11.525Z,29.9540
2024-03-05T00:14:22.563Z,29.9480
2024-03-05T00:14:33.598Z,29.9450
2024-03-05T00:14:44.703Z,29.9450
2024-03-05T00:14:55.759Z,29.9450
2024-03-05T00:15:06.837Z,29.9280
2024-03-05T00:15:17.901Z,29.9120
2024-03-05T00:15:28.987Z,29.9170
2024-03-05T00:15:40.027Z,29.9170
2024-03-05T00:15:51.091Z,29.9220
2024-03-05T00:16:02.147Z,29.9010
2024-03-05T00:16:13.243Z,29.9170
2024-03-05T00:16:24.395Z,29.9170
2024-03-05T00:16:35.543Z,29.9060
2024-03-05T00:16:46.675Z,29.9120
2024-03-05T00:16:57.834Z,29.9280
2024-03-05T00:17:08.900Z,29.9090
2024-03-05T00:17:19.955Z,29.9020
2024-03-05T00:17:31.046Z,29.8970
2024-03-05T00:17:42.133Z,29.9020
2024-03-05T00:17:53.198Z,29.8970
2024-03-05T00:18:04.277Z,29.8950
2024-03-05T00:18:15.318Z,29.9010
2024-03-05T00:18:26.383Z,29.9120
2024-03-05T00:18:37.468Z,29.9010
2024-03-05T00:18:48.503Z,29.9170
2024-03-05T00:18:59.570Z,29.9220
2024-03-05T00:19:10.716Z,29.9060
2024-03-05T00:19:21.843Z,29.9170
2024-03-05T00:19:32.915Z,29.9220
2024-03-05T00:19:43.968Z,29.9170
2024-03-05T00:19:55.058Z,29.9170
2024-03-05T00:20:06.189Z,29.8950
2024-03-05T00:20:17.306Z,29.9060
2024-03-05T00:20:28.329Z,29.8900
2024-03-05T00:20:39.413Z,29.8950
2024-03-05T00:20:50.467Z,29.8860
2024-03-05T00:21:01.487Z,29.8860
2024-03-05T00:21:12.542Z,29.9010
2024-03-05T00:21:23.575Z,29.9010
2024-03-05T00:21:34.695Z,29.9170
2024-03-05T00:21:45.753Z,29.9060
2024-03-05T00:21:56.805Z,29.9010
2024-03-05T00:22:07.867Z,29.9060
2024-03-05T00:22:18.962Z,29.8950
2024-03-05T00:22:30.096Z,29.9120
2024-03-05T00:22:41.207Z,29.9060
2024-03-05T00:22:52.361Z,29.9060
2024-03-05T00:23:03.508Z,29.9010
2024-03-05T00:23:14.542Z,29.8900
2024-03-05T00:23:25.595Z,29.8900
2024-03-05T00:23:36.634Z,29.8740
2024-03-05T00:23:47.727Z,29.8740
2024-03-05T00:23:58.736Z,29.8740
2024-03-05T00:24:09.821Z,29.8740
2024-03-05T00:24:20.855Z,29.8790
2024-03-05T00:24:31.933Z,29.8640
2024-03-05T00:24:42.994Z,29.8590
2024-03-05T00:24:54.004Z,29.8430
2024-03-05T00:25:05.118Z,29.8480
2024-03-05T00:25:16.309Z,29.8590
2024-03-05T00:25:27.759Z,29.8590
2024-03-05T00:25:38.908Z,29.8640
2024-03-05T00:25:50.053Z,29.8640
2024-03-05T00:26:01.138Z,29.8630
2024-03-05T00:26:12.208Z,29.8790
2024-03-05T00:26:23.272Z,29.8740
2024-03-05T00:26:34.342Z,29.8900
2024-03-05T00:26:45.384Z,29.8850
2024-03-05T00:26:56.487Z,29.8850
2024-03-05T00:27:07.605Z,29.8900
2024-03-05T00:27:18.623Z,29.8850
2024-03-05T00:27:29.691Z,29.8850
2024-03-05T00:27:40.745Z,29.8950
2024-03-05T00:27:51.811Z,29.8950
2024-03-05T00:28:02.888Z,29.8790
2024-03-05T00:28:13.944Z,29.8900
2024-03-05T00:28:24.992Z,29.8850
2024-03-05T00:28:36.077Z,29.8900
2024-03-05T00:28:47.244Z,29.8850
2024-03-05T00:28:58.379Z,29.8740
2024-03-05T00:29:09.445Z,29.8850
2024-03-05T00:29:20.466Z,29.8740
2024-03-05T00:29:31.527Z,29.8740
2024-03-05T00:29:42.581Z,29.8850
2024-03-05T00:29:53.603Z,29.8880
2024-03-05T00:30:04.690Z,29.8880
2024-03-05T00:30:15.734Z,29.8880
2024-03-05T00:30:26.796Z,29.8880
2024-03-05T00:30:37.844Z,29.8990
2024-03-05T00:30:48.905Z,29.9050
2024-03-05T00:30:59.929Z,29.9160
2024-03-05T00:31:11.139Z,29.8990
2024-03-05T00:31:22.292Z,29.9050
2024-03-05T00:31:33.338Z,29.9050
2024-03-05T00:31:44.484Z,29.8940
2024-03-05T00:31:55.542Z,29.9100
2024-03-05T00:32:06.618Z,29.9050
2024-03-05T00:32:17.671Z,29.9160
2024-03-05T00:32:28.732Z,29.9100
2024-03-05T00:32:39.822Z,29.9100
2024-03-05T00:32:50.925Z,29.9260
2024-03-05T00:33:02.059Z,29.9160
2024-03-05T00:33:13.266Z,29.9160
2024-03-05T00:33:24.301Z,29.9100
2024-03-05T00:33:35.353Z,29.9050
2024-03-05T00:33:46.417Z,29.9210
2024-03-05T00:33:57.475Z,29.9150
2024-03-05T00:34:08.531Z,29.9210
2024-03-05T00:34:19.612Z,29.9100
2024-03-05T00:34:30.685Z,29.9210
2024-03-05T00:34:41.747Z,29.9210
2024-03-05T00:34:52.807Z,29.9100
2024-03-05T00:35:03.896Z,29.9160
2024-03-05T00:35:14.947Z,29.8940
2024-03-05T00:35:26.054Z,29.8880
2024-03-05T00:35:37.103Z,29.8990
2024-03-05T00:35:48.132Z,29.8940
2024-03-05T00:35:59.222Z,29.8880
2024-03-05T00:36:10.257Z,29.8990
2024-03-05T00:36:21.292Z,29.8990
2024-03-05T00:36:32.337Z,29.8990
2024-03-05T00:36:43.401Z,29.8990
2024-03-05T00:36:54.508Z,29.9050
2024-03-05T00:37:05.529Z,29.9050
2024-03-05T00:37:16.662Z,29.8990
2024-03-05T00:37:27.777Z,29.8990
2024-03-05T00:37:39.081Z,29.8940
2024-03-05T00:37:50.454Z,29.9050
2024-03-05T00:38:01.612Z,29.8760
2024-03-05T00:38:18.591Z,29.8760
2024-03-05T00:38:33.689Z,30.0040
2024-03-05T00:38:45.358Z,30.0930
2024-03-05T00:38:56.419Z,30.0280
2024-03-05T00:39:07.464Z,29.9560
2024-03-05T00:39:18.732Z,29.9380
2024-03-05T00:39:29.773Z,29.9330
2024-03-05T00:39:40.845Z,29.9270
2024-03-05T00:39:51.919Z,29.9260
2024-03-05T00:40:02.989Z,29.9260
2024-03-05T00:40:14.070Z,29.9100
2024-03-05T00:40:25.138Z,29.9160
2024-03-05T00:40:36.277Z,29.9050
2024-03-05T00:40:47.410Z,29.9100
2024-03-05T00:40:58.459Z,29.9050
2024-03-05T00:41:09.483Z,29.8940
2024-03-05T00:41:20.593Z,29.8940
2024-03-05T00:41:31.630Z,29.8880
2024-03-05T00:41:42.709Z,29.8990
2024-03-05T00:41:53.737Z,29.8880
2024-03-05T00:42:04.833Z,29.8940
2024-03-05T00:42:15.878Z,29.8880
2024-03-05T00:42:26.976Z,29.8710
2024-03-05T00:42:38.056Z,29.8760
2024-03-05T00:42:49.082Z,29.8880
2024-03-05T00:43:00.182Z,29.8820
2024-03-05T00:43:11.291Z,29.8880
2024-03-05T00:43:22.415Z,29.8880
2024-03-05T00:43:33.462Z,29.8940
2024-03-05T00:43:44.570Z,29.8940
2024-03-05T00:43:55.630Z,29.8880
2024-03-05T00:44:06.702Z,29.8940
2024-03-05T00:44:17.778Z,29.8880
2024-03-05T00:44:28.858Z,29.9050
2024-03-05T00:44:39.937Z,29.8990
2024-03-05T00:44:50.987Z,29.8990
2024-03-05T00:45:02.084Z,29.8990
2024-03-05T00:45:13.129Z,29.9050
2024-03-05T00:45:24.206Z,29.8990
2024-03-05T00:45:35.251Z,29.8940
2024-03-05T00:45:46.287Z,29.8820
2024-03-05T00:45:57.328Z,29.8990
2024-03-05T00:46:08.390Z,29.8940
2024-03-05T00:46:19.483Z,29.8940
2024-03-05T00:46:30.560Z,29.8990
2024-03-05T00:46:41.641Z,29.8850
2024-03-05T00:46:52.776Z,29.9060
2024-03-05T00:47:03.898Z,29.8900
2024-03-05T00:47:14.954Z,29.8990
2024-03-05T00:47:26.069Z,29.9050
2024-03-05T00:47:37.626Z,29.9120
2024-03-05T00:47:48.836Z,29.9120
2024-03-05T00:47:59.936Z,29.9160
2024-03-05T00:48:11.140Z,29.8990
2024-03-05T00:48:22.218Z,29.9050
2024-03-05T00:48:33.273Z,29.9120
2024-03-05T00:48:44.330Z,29.9010
2024-03-05T00:48:55.379Z,29.8900
2024-03-05T00:49:06.423Z,29.8900
2024-03-05T00:49:17.497Z,29.8900
2024-03-05T00:49:28.549Z,29.8950
2024-03-05T00:49:39.641Z,29.8950
2024-03-05T00:49:50.767Z,29.9060
2024-03-05T00:50:01.892Z,29.8940
2024-03-05T00:50:12.943Z,29.9160
2024-03-05T00:50:24.000Z,29.9160
2024-03-05T00:50:35.063Z,29.9050
2024-03-05T00:50:46.175Z,29.9160
2024-03-05T00:50:57.184Z,29.9120
2024-03-05T00:51:08.207Z,29.9060
2024-03-05T00:51:19.256Z,29.8950
2024-03-05T00:51:30.342Z,29.9010
2024-03-05T00:51:41.412Z,29.8900
2024-03-05T00:51:52.458Z,29.8900
2024-03-05T00:52:03.561Z,29.8740
2024-03-05T00:52:14.717Z,29.8790
2024-03-05T00:52:25.845Z,29.8790
2024-03-05T00:52:36.934Z,29.8900
2024-03-05T00:52:48.042Z,29.9010
2024-03-05T00:52:59.136Z,29.9010
2024-03-05T00:53:10.163Z,29.8950
2024-03-05T00:53:21.221Z,29.9060
2024-03-05T00:53:32.294Z,29.9010
2024-03-05T00:53:43.360Z,29.9160
2024-03-05T00:53:54.445Z,29.9100
2024-03-05T00:54:05.524Z,29.9100
2024-03-05T00:54:16.545Z,29.9210
2024-03-05T00:54:27.598Z,29.9320
2024-03-05T00:54:38.664Z,29.9480
2024-03-05T00:54:49.723Z,29.9480
2024-03-05T00:55:00.910Z,29.9420
2024-03-05T00:55:12.425Z,29.9530
2024-03-05T00:55:23.548Z,29.9580
2024-03-05T00:55:34.740Z,29.9480
2024-03-05T00:55:45.848Z,29.9270
2024-03-05T00:55:57.037Z,29.9370
2024-03-05T00:56:08.165Z,29.9590
2024-03-05T00:56:19.211Z,29.9420
2024-03-05T00:56:30.287Z,29.9530
2024-03-05T00:56:41.325Z,29.9530
2024-03-05T00:56:52.376Z,29.9530
2024-03-05T00:57:03.426Z,29.9530
2024-03-05T00:57:14.478Z,29.9480
2024-03-05T00:57:25.585Z,29.9530
2024-03-05T00:57:36.649Z,29.9580
2024-03-05T00:57:47.717Z,29.9580
2024-03-05T00:57:58.911Z,29.9640
2024-03-05T00:58:09.946Z,29.9530
2024-03-05T00:58:21.037Z,29.9640
2024-03-05T00:58:32.097Z,29.9540
2024-03-05T00:58:43.174Z,29.9430
2024-03-05T00:58:54.322Z,29.9270
2024-03-05T00:59:05.463Z,29.9370
2024-03-05T00:59:16.549Z,29.9270
2024-03-05T00:59:27.633Z,29.9280
2024-03-05T00:59:38.693Z,29.9330
2024-03-05T00:59:50.091Z,29.9330
2024-03-05T01:00:01.291Z,29.9430
2024-03-05T01:00:12.330Z,29.9320
2024-03-05T01:00:23.357Z,29.9430
2024-03-05T01:00:34.433Z,29.9320
2024-03-05T01:00:45.477Z,29.9430
2024-03-05T01:00:56.528Z,29.9320
2024-03-05T01:01:07.618Z,29.9370
2024-03-05T01:01:18.723Z,29.9370
2024-03-05T01:01:29.930Z,29.9530
2024-03-05T01:01:41.069Z,29.9710
2024-03-05T01:01:52.250Z,29.9530
2024-03-05T01:02:03.490Z,29.9640
2024-03-05T01:02:14.819Z,29.9710
2024-03-05T01:02:25.946Z,29.9590
2024-03-05T01:02:37.186Z,29.9480
2024-03-05T01:02:48.229Z,29.9660
2024-03-05T01:02:59.293Z,29.9480
2024-03-05T01:03:10.313Z,29.9640
2024-03-05T01:03:21.348Z,29.9640
2024-03-05T01:03:32.399Z,29.9710
2024-03-05T01:03:43.455Z,29.9640
2024-03-05T01:03:54.515Z,29.9580
2024-03-05T01:04:05.584Z,29.9530
2024-03-05T01:04:16.686Z,29.9580
2024-03-05T01:04:27.745Z,29.9710
2024-03-05T01:04:38.808Z,29.9370
2024-03-05T01:04:49.968Z,29.9480
2024-03-05T01:05:01.187Z,29.9590
2024-03-05T01:05:12.252Z,29.9480
2024-03-05T01:05:23.321Z,29.9420
2024-03-05T01:05:34.386Z,29.9540
2024-03-05T01:05:45.435Z,29.9540
2024-03-05T01:05:56.488Z,29.9370
2024-03-05T01:06:07.535Z,29.9320
2024-03-05T01:06:18.550Z,29.9270
2024-03-05T01:06:29.609Z,29.9210
2024-03-05T01:06:40.662Z,29.9160
2024-03-05T01:06:51.709Z,29.9220
2024-03-05T01:07:02.769Z,29.9160
2024-03-05T01:07:13.861Z,29.9270
2024-03-05T01:07:25.037Z,29.9370
2024-03-05T01:07:36.123Z,29.9320
2024-03-05T01:07:47.256Z,29.9370
2024-03-05T01:07:58.364Z,29.9430
2024-03-05T01:08:09.442Z,29.9430
2024-03-05T01:08:20.482Z,29.9540
2024-03-05T01:08:31.523Z,29.9480
2024-03-05T01:08:42.579Z,29.9430
2024-03-05T01:08:53.644Z,29.9480
2024-03-05T01:09:04.682Z,29.9370
2024-03-05T01:09:15.767Z,29.9540
2024-03-05T01:09:26.802Z,29.9370
2024-03-05T01:09:37.861Z,29.9430
2024-03-05T01:09:48.928Z,29.9370
2024-03-05T01:09:59.959Z,29.9370
2024-03-05T01:10:11.199Z,29.9430
2024-03-05T01:10:22.339Z,29.9540
2024-03-05T01:10:33.400Z,29.9580
2024-03-05T01:10:44.532Z,29.9540
2024-03-05T01:10:55.756Z,29.9480
2024-03-05T01:11:06.889Z,29.9590
2024-03-05T01:11:17.987Z,29.9430
2024-03-05T01:11:29.086Z,29.9320
2024-03-05T01:11:40.251Z,29.9210
2024-03-05T01:11:51.361Z,29.9400
2024-03-05T01:12:02.423Z,29.9100
2024-03-05T01:12:13.443Z,29.9100
2024-03-05T01:12:24.494Z,29.9270
2024-03-05T01:12:35.529Z,29.9210
2024-03-05T01:12:46.580Z,29.9210
2024-03-05T01:12:57.640Z,29.9160
2024-03-05T01:13:08.709Z,29.9270
2024-03-05T01:13:19.819Z,29.9160
2024-03-05T01:13:30.898Z,29.9370
2024-03-05T01:13:41.988Z,29.9370
2024-03-05T01:13:53.101Z,29.9320
2024-03-05T01:14:04.201Z,29.9430
2024-03-05T01:14:15.233Z,29.9320
2024-03-05T01:14:26.282Z,29.9370
2024-03-05T01:14:37.333Z,29.9270
2024-03-05T01:14:48.362Z,29.9210
2024-03-05T01:14:59.373Z,29.9320
2024-03-05T01:15:10.441Z,29.9430
2024-03-05T01:15:21.487Z,29.9430
2024-03-05T01:15:32.535Z,29.9480
2024-03-05T01:15:43.597Z,29.9480
2024-03-05T01:15:54.660Z,29.9610
2024-03-05T01:16:05.711Z,29.9560
2024-03-05T01:16:16.848Z,29.9760
2024-03-05T01:16:27.923Z,29.9580
2024-03-05T01:16:39.029Z,29.9370
2024-03-05T01:16:50.151Z,29.9530
2024-03-05T01:17:01.271Z,29.9430
2024-03-05T01:17:12.329Z,29.9430
2024-03-05T01:17:23.387Z,29.9370
2024-03-05T01:17:34.435Z,29.9320
2024-03-05T01:17:45.461Z,29.9370
2024-03-05T01:17:56.516Z,29.9210
2024-03-05T01:18:07.638Z,29.9210
2024-03-05T01:18:18.765Z,29.9270
2024-03-05T01:18:29.814Z,29.9270
2024-03-05T01:18:40.883Z,29.9320
2024-03-05T01:18:51.904Z,29.9270
2024-03-05T01:19:02.985Z,29.9320
2024-03-05T01:19:14.066Z,29.9320
2024-03-05T01:19:25.121Z,29.9210
2024-03-05T01:19:36.246Z,29.9320
2024-03-05T01:19:47.281Z,29.9270
2024-03-05T01:19:58.485Z,29.9210
2024-03-05T01:20:09.549Z,29.9210
2024-03-05T01:20:20.614Z,29.9210
2024-03-05T01:20:31.714Z,29.9160
2024-03-05T01:20:42.771Z,29.9210
2024-03-05T01:20:53.823Z,29.9100
2024-03-05T01:21:04.864Z,29.9060
2024-03-05T01:21:15.931Z,29.9060
2024-03-05T01:21:26.980Z,29.9060
2024-03-05T01:21:38.005Z,29.9010
2024-03-05T01:21:49.081Z,29.9010
2024-03-05T01:22:00.132Z,29.9120
2024-03-05T01:22:11.181Z,29.9010
2024-03-05T01:22:22.513Z,29.9120
2024-03-05T01:22:33.617Z,29.8950
2024-03-05T01:22:44.752Z,29.9010
2024-03-05T01:22:55.911Z,29.9010
2024-03-05T01:23:07.025Z,29.9120
2024-03-05T01:23:18.201Z,29.9210
2024-03-05T01:23:29.262Z,29.9100
2024-03-05T01:23:40.321Z,29.9160
2024-03-05T01:23:51.364Z,29.9160
2024-03-05T01:24:02.426Z,29.9100
2024-03-05T01:24:13.472Z,29.9100
2024-03-05T01:24:24.625Z,29.9050
2024-03-05T01:24:35.649Z,29.9100
2024-03-05T01:24:46.690Z,29.9170
2024-03-05T01:24:57.756Z,29.9060
2024-03-05T01:25:08.784Z,29.9120
2024-03-05T01:25:19.885Z,29.9120
2024-03-05T01:25:31.021Z,29.9060
2024-03-05T01:25:42.105Z,29.9100
2024-03-05T01:25:53.240Z,29.9100
2024-03-05T01:26:04.514Z,29.9160
2024-03-05T01:26:15.693Z,29.9320
2024-03-05T01:26:26.772Z,29.9270
2024-03-05T01:26:37.795Z,29.9210
2024-03-05T01:26:48.846Z,29.9210
2024-03-05T01:26:59.924Z,29.9270
2024-03-05T01:27:10.976Z,29.9370
2024-03-05T01:27:22.036Z,29.9320
2024-03-05T01:27:33.111Z,29.9370
2024-03-05T01:27:44.154Z,29.9320
2024-03-05T01:27:55.204Z,29.9210
2024-03-05T01:28:06.282Z,29.9270
2024-03-05T01:28:17.340Z,29.9270
2024-03-05T01:28:28.432Z,29.9270
2024-03-05T01:28:39.519Z,29.9270
2024-03-05T01:28:50.625Z,29.9160
2024-03-05T01:29:01.755Z,29.9060
2024-03-05T01:29:12.822Z,29.9170
2024-03-05T01:29:23.888Z,29.9160
2024-03-05T01:29:34.940Z,29.9160
2024-03-05T01:29:46.000Z,29.9100
2024-03-05T01:29:57.048Z,29.8990
2024-03-05T01:30:09.815Z,29.9100
2024-03-05T01:30:21.132Z,29.9660
2024-03-05T01:30:32.165Z,29.9430
2024-03-05T01:30:43.211Z,29.9320
2024-03-05T01:30:54.258Z,29.9320
2024-03-05T01:31:05.395Z,29.9210
2024-03-05T01:31:16.490Z,29.9160
2024-03-05T01:31:27.638Z,29.9210
2024-03-05T01:31:38.784Z,29.9320
2024-03-05T01:31:49.920Z,29.9320
2024-03-05T01:32:01.654Z,29.9320
2024-03-05T01:32:12.806Z,29.9430
2024-03-05T01:32:23.872Z,29.9370
2024-03-05T01:32:34.957Z,29.9320
2024-03-05T01:32:46.066Z,29.9270
2024-03-05T01:32:57.132Z,29.9160
2024-03-05T01:33:08.192Z,29.9210
2024-03-05T01:33:19.208Z,29.9050
2024-03-05T01:33:30.273Z,29.9160
2024-03-05T01:33:41.312Z,29.9100
2024-03-05T01:33:52.411Z,29.9210
2024-03-05T01:34:03.469Z,29.9100
2024-03-05T01:34:14.544Z,29.9050
2024-03-05T01:34:25.642Z,29.9320
2024-03-05T01:34:36.766Z,29.9210
2024-03-05T01:34:47.960Z,29.9270
2024-03-05T01:34:59.122Z,29.9210
2024-03-05T01:35:10.155Z,29.9170
2024-03-05T01:35:21.192Z,29.9060
2024-03-05T01:35:32.239Z,29.9010
2024-03-05T01:35:43.266Z,29.8850
2024-03-05T01:35:54.365Z,29.8970
2024-03-05T01:36:05.413Z,29.8750
2024-03-05T01:36:16.603Z,29.8750
2024-03-05T01:36:27.689Z,29.8700
2024-03-05T01:36:38.708Z,29.8810
2024-03-05T01:36:49.744Z,29.8750
2024-03-05T01:37:00.802Z,29.8640
2024-03-05T01:37:11.874Z,29.8700
2024-03-05T01:37:22.987Z,29.8750
2024-03-05T01:37:34.124Z,29.8810
2024-03-05T01:37:45.310Z,29.8850
2024-03-05T01:37:56.399Z,29.9010
2024-03-05T01:38:07.453Z,29.9060
2024-03-05T01:38:18.500Z,29.9010
2024-03-05T01:38:29.533Z,29.8950
2024-03-05T01:38:40.571Z,29.8900
2024-03-05T01:38:51.630Z,29.8950
2024-03-05T01:39:02.658Z,29.8950
2024-03-05T01:39:13.710Z,29.8900
2024-03-05T01:39:24.743Z,29.9120
2024-03-05T01:39:35.818Z,29.9220
2024-03-05T01:39:46.819Z,29.9120
2024-03-05T01:39:57.868Z,29.9170
2024-03-05T01:40:08.904Z,29.9160
2024-03-05T01:40:20.003Z,29.9160
2024-03-05T01:40:31.068Z,29.9270
2024-03-05T01:40:42.103Z,29.9370
2024-03-05T01:40:53.223Z,29.9530
2024-03-05T01:41:04.324Z,29.9580
2024-03-05T01:41:15.386Z,29.9530
2024-03-05T01:41:26.450Z,29.9480
2024-03-05T01:41:37.523Z,29.9430
2024-03-05T01:41:48.596Z,29.9430
2024-03-05T01:41:59.624Z,29.9370
2024-03-05T01:42:10.666Z,29.9370
2024-03-05T01:42:21.704Z,29.9530
2024-03-05T01:42:32.762Z,29.9530
2024-03-05T01:42:43.806Z,29.9540
2024-03-05T01:42:54.899Z,29.9370
2024-03-05T01:43:05.948Z,29.9480
2024-03-05T01:43:17.030Z,29.9320
2024-03-05T01:43:28.067Z,29.9370
2024-03-05T01:43:39.195Z,29.9270
2024-03-05T01:43:50.408Z,29.9320
2024-03-05T01:44:01.518Z,29.9210
2024-03-05T01:44:12.618Z,29.9160
2024-03-05T01:44:23.674Z,29.9220
2024-03-05T01:44:34.756Z,29.9170
2024-03-05T01:44:45.812Z,29.9170
2024-03-05T01:44:56.868Z,29.9010
2024-03-05T01:45:07.944Z,29.8950
2024-03-05T01:45:19.180Z,29.9010
2024-03-05T01:45:30.194Z,29.9010
2024-03-05T01:45:41.265Z,29.8950
2024-03-05T01:45:52.281Z,29.8850
2024-03-05T01:46:03.334Z,29.8950
2024-03-05T01:46:14.387Z,29.8950
2024-03-05T01:46:25.497Z,29.8950
2024-03-05T01:46:36.667Z,29.8950
2024-03-05T01:46:47.866Z,29.9010
2024-03-05T01:46:58.997Z,29.9060
2024-03-05T01:47:10.056Z,29.9120
2024-03-05T01:47:21.075Z,29.9010
2024-03-05T01:47:32.132Z,29.9060
2024-03-05T01:47:43.196Z,29.9010
2024-03-05T01:47:54.332Z,29.9060
2024-03-05T01:48:05.484Z,29.9120
2024-03-05T01:48:16.591Z,29.9170
2024-03-05T01:48:27.616Z,29.9170
2024-03-05T01:48:38.668Z,29.9170
2024-03-05T01:48:49.730Z,29.9330
2024-03-05T01:49:00.771Z,29.9400
2024-03-05T01:49:11.909Z,29.9210
2024-03-05T01:49:23.019Z,29.9370
2024-03-05T01:49:34.060Z,29.9480
2024-03-05T01:49:45.101Z,29.9430
2024-03-05T01:49:56.350Z,29.9540
2024-03-05T01:50:07.660Z,29.9710
2024-03-05T01:50:18.710Z,29.9760
2024-03-05T01:50:29.757Z,29.9640
2024-03-05T01:50:40.788Z,29.9540
2024-03-05T01:50:51.898Z,29.9590
2024-03-05T01:51:02.922Z,29.9540
2024-03-05T01:51:13.992Z,29.9540
2024-03-05T01:51:25.033Z,29.9480
2024-03-05T01:51:36.094Z,29.9540
2024-03-05T01:51:47.151Z,29.9370
2024-03-05T01:51:58.209Z,29.9480
2024-03-05T01:52:09.264Z,29.9430
2024-03-05T01:52:20.388Z,29.9480
2024-03-05T01:52:31.482Z,29.9480
2024-03-05T01:52:42.647Z,29.9480
2024-03-05T01:52:53.745Z,29.9480
2024-03-05T01:53:04.784Z,29.9480
2024-03-05T01:53:15.958Z,29.9590
2024-03-05T01:53:26.994Z,29.9480
2024-03-05T01:53:38.045Z,29.9660
2024-03-05T01:53:49.098Z,29.9540
2024-03-05T01:54:00.152Z,29.9540
2024-03-05T01:54:11.188Z,29.9540
2024-03-05T01:54:22.223Z,29.9480
2024-03-05T01:54:33.271Z,29.9480
2024-03-05T01:54:44.341Z,29.9590
2024-03-05T01:54:56.871Z,29.9370
2024-03-05T01:55:09.414Z,30.0430
2024-03-05T01:55:20.588Z,29.9980
2024-03-05T01:55:31.693Z,29.9870
2024-03-05T01:55:42.865Z,29.9920
2024-03-05T01:55:54.108Z,29.9710
2024-03-05T01:56:05.194Z,29.9660
2024-03-05T01:56:16.329Z,29.9710
2024-03-05T01:56:27.364Z,29.9660
2024-03-05T01:56:38.384Z,29.9710
2024-03-05T01:56:49.458Z,29.9590
2024-03-05T01:57:00.506Z,29.9480
2024-03-05T01:57:11.557Z,29.9560
2024-03-05T01:57:22.628Z,29.9620
2024-03-05T01:57:33.684Z,29.9510
2024-03-05T01:57:44.747Z,29.9450
2024-03-05T01:57:55.796Z,29.9450
2024-03-05T01:58:06.848Z,29.9450
2024-03-05T01:58:17.937Z,29.9450
2024-03-05T01:58:29.004Z,29.9330
2024-03-05T01:58:40.109Z,29.9510
2024-03-05T01:58:51.264Z,29.9330
2024-03-05T01:59:02.473Z,29.9330
2024-03-05T01:59:13.614Z,29.9360
2024-03-05T01:59:24.683Z,29.9250
2024-03-05T01:59:35.739Z,29.9200
2024-03-05T01:59:46.825Z,29.9200
2024-03-05T01:59:58.351Z,29.9310
2024-03-05T02:00:09.370Z,29.9220
2024-03-05T02:00:20.432Z,29.9220
2024-03-05T02:00:31.484Z,29.9450
2024-03-05T02:00:42.530Z,29.9330
2024-03-05T02:00:53.594Z,29.9400
2024-03-05T02:01:04.627Z,29.9400
2024-03-05T02:01:15.761Z,29.9330
2024-03-05T02:01:26.886Z,29.9400
2024-03-05T02:01:38.020Z,29.9400
2024-03-05T02:01:49.137Z,29.9400
2024-03-05T02:02:00.303Z,29.9400
2024-03-05T02:02:11.596Z,29.9400
2024-03-05T02:02:22.767Z,29.9450
2024-03-05T02:02:33.820Z,29.9660
2024-03-05T02:02:44.856Z,29.9660
2024-03-05T02:02:55.881Z,29.9660
2024-03-05T02:03:06.998Z,29.9590
2024-03-05T02:03:18.088Z,29.9770
2024-03-05T02:03:29.143Z,29.9770
2024-03-05T02:03:40.186Z,29.9710
2024-03-05T02:03:51.234Z,29.9870
2024-03-05T02:04:02.254Z,29.9820
2024-03-05T02:04:13.382Z,29.9820
2024-03-05T02:04:24.554Z,29.9820
2024-03-05T02:04:35.866Z,30.0090
2024-03-05T02:04:46.924Z,29.9930
2024-03-05T02:04:58.011Z,29.9820
2024-03-05T02:05:09.032Z,29.9820
2024-03-05T02:05:20.085Z,29.9820
2024-03-05T02:05:31.142Z,29.9870
2024-03-05T02:05:42.171Z,29.9870
2024-03-05T02:05:53.242Z,30.0140
2024-03-05T02:06:04.286Z,30.0090
2024-03-05T02:06:15.310Z,30.0140
2024-03-05T02:06:26.377Z,30.0090
2024-03-05T02:06:37.427Z,30.0200
2024-03-05T02:06:48.513Z,30.0250
2024-03-05T02:06:59.589Z,30.0250
2024-03-05T02:07:10.647Z,30.0140
2024-03-05T02:07:21.728Z,30.0140
2024-03-05T02:07:32.754Z,30.0040
2024-03-05T02:07:43.872Z,30.0200
2024-03-05T02:07:55.131Z,30.0250
2024-03-05T02:08:06.387Z,30.0250
2024-03-05T02:08:18.897Z,30.0200
2024-03-05T02:08:30.718Z,30.0860
2024-03-05T02:08:41.757Z,30.0640
2024-03-05T02:08:52.791Z,30.0480
2024-03-05T02:09:03.853Z,30.0410
2024-03-05T02:09:14.890Z,30.0410
2024-03-05T02:09:25.922Z,30.0250
2024-03-05T02:09:36.994Z,30.0310
2024-03-05T02:09:48.079Z,30.0480
2024-03-05T02:09:59.242Z,30.0430
2024-03-05T02:10:10.300Z,30.0250
2024-03-05T02:10:21.342Z,30.0140
2024-03-05T02:10:32.452Z,30.0200
2024-03-05T02:10:43.490Z,30.0140
2024-03-05T02:10:54.631Z,30.0200
2024-03-05T02:11:05.797Z,30.0170
2024-03-05T02:11:16.959Z,30.0170
2024-03-05T02:11:28.075Z,30.0230
2024-03-05T02:11:49.166Z,30.0200
2024-03-05T02:11:59.510Z,30.1580
2024-03-05T02:12:13.102Z,30.2200
2024-03-05T02:12:24.178Z,30.1700
2024-03-05T02:12:35.211Z,30.0980
2024-03-05T02:12:46.347Z,30.0710
2024-03-05T02:12:57.472Z,30.0750
2024-03-05T02:13:08.523Z,30.0700
2024-03-05T02:13:19.607Z,30.0590
2024-03-05T02:13:30.676Z,30.0640
2024-03-05T02:13:41.787Z,30.0700
2024-03-05T02:13:52.865Z,30.0700
2024-03-05T02:14:03.894Z,30.0530
2024-03-05T02:14:14.993Z,30.0700
2024-03-05T02:14:26.042Z,30.0640
2024-03-05T02:14:37.073Z,30.0640